Time;durP1;ratioP1;P1;durP2;ratioP2;P2;SDS_P1;SDS_P2;PMS_P1;PMS_P2;Temp;Humidity;BMP_temperature;BMP_pressure;BME280_temperature;BME280_humidity;BME280_pressure;Samples;Min_cycle;Max_cycle;Signal;HPM_P1;HPM_P2
2023/08/31 00:02:21;;;;;;;2.00;0.60;;;11.90;99.90;;;;;;5076985;28;20040;-79
2023/08/31 00:04:47;;;;;;;2.55;0.70;;;11.90;99.90;;;;;;5095020;28;20166;-79
2023/08/31 00:07:12;;;;;;;5.35;0.90;;;11.80;99.90;;;;;;5076621;28;20046;-79
2023/08/31 00:09:39;;;;;;;3.08;0.82;;;11.80;99.90;;;;;;5094665;28;20137;-79
2023/08/31 00:12:05;;;;;;;4.63;0.77;;;11.80;99.90;;;;;;5094833;28;20040;-79
2023/08/31 00:14:32;;;;;;;1.98;0.90;;;11.90;99.90;;;;;;5076457;28;20060;-79
2023/08/31 00:16:58;;;;;;;2.53;0.90;;;11.80;99.90;;;;;;5076761;28;20060;-79
2023/08/31 00:19:24;;;;;;;4.68;0.80;;;11.80;99.90;;;;;;5093625;28;20494;-79
2023/08/31 00:21:50;;;;;;;4.18;1.05;;;11.80;99.90;;;;;;5093359;28;20465;-79
2023/08/31 00:24:15;;;;;;;5.85;0.82;;;11.80;99.90;;;;;;5093160;28;20130;-79
2023/08/31 00:26:42;;;;;;;4.15;0.90;;;11.80;99.90;;;;;;5093160;28;20127;-79
2023/08/31 00:29:11;;;;;;;1.80;0.63;;;11.80;99.90;;;;;;5093449;28;20079;-79
2023/08/31 00:31:37;;;;;;;2.53;0.90;;;11.70;99.90;;;;;;5076303;28;20127;-79
2023/08/31 00:34:04;;;;;;;2.55;0.80;;;11.70;99.90;;;;;;5093285;28;20123;-79
2023/08/31 00:36:33;;;;;;;3.30;0.90;;;11.70;99.90;;;;;;5076452;28;20087;-79
2023/08/31 00:39:05;;;;;;;3.45;1.10;;;11.60;99.90;;;;;;5094363;28;20417;-79
2023/08/31 00:41:31;;;;;;;3.47;0.80;;;11.50;99.90;;;;;;5075800;28;20504;-79
2023/08/31 00:43:56;;;;;;;3.08;0.70;;;11.60;99.90;;;;;;5092824;28;20044;-79
2023/08/31 00:46:22;;;;;;;2.55;0.73;;;11.60;99.90;;;;;;5093113;28;20040;-79
2023/08/31 00:48:48;;;;;;;5.47;0.98;;;11.50;99.90;;;;;;5092754;28;20197;-79
2023/08/31 00:51:14;;;;;;;3.13;0.75;;;11.50;99.90;;;;;;5092617;28;20046;-79
2023/08/31 00:53:41;;;;;;;4.65;1.00;;;11.50;99.90;;;;;;5094071;28;20052;-79
2023/08/31 00:56:07;;;;;;;5.13;1.08;;;11.40;99.90;;;;;;5092939;28;20047;-79
2023/08/31 00:58:33;;;;;;;1.88;0.70;;;11.50;99.90;;;;;;5075877;28;20509;-79
2023/08/31 01:01:18;;;;;;;2.45;1.10;;;11.50;99.90;;;;;;5093959;28;20044;-79
2023/08/31 01:03:47;;;;;;;3.28;0.80;;;11.50;99.90;;;;;;5092516;28;20047;-79
2023/08/31 01:06:40;;;;;;;6.75;1.20;;;11.40;99.90;;;;;;5092808;28;20120;-79
2023/08/31 01:09:29;;;;;;;6.82;1.20;;;11.40;99.90;;;;;;5092516;28;20048;-79
2023/08/31 01:11:54;;;;;;;5.22;1.10;;;11.40;99.90;;;;;;5075813;28;20052;-79
2023/08/31 01:14:24;;;;;;;3.83;1.30;;;11.50;99.90;;;;;;5092174;28;20044;-79
2023/08/31 01:16:52;;;;;;;2.47;1.10;;;11.50;99.90;;;;;;5075600;28;20044;-79
2023/08/31 01:19:48;;;;;;;6.43;1.20;;;11.50;99.90;;;;;;5092467;28;20055;-79
2023/08/31 01:22:21;;;;;;;5.95;1.20;;;11.50;99.90;;;;;;5075856;28;20040;-78
2023/08/31 01:24:47;;;;;;;5.72;1.38;;;11.60;99.90;;;;;;5092216;28;20078;-79
2023/08/31 01:27:13;;;;;;;5.25;0.93;;;11.60;99.90;;;;;;5092346;28;20083;-79
2023/08/31 01:29:39;;;;;;;2.95;1.08;;;11.60;99.90;;;;;;5092239;28;20044;-79
2023/08/31 01:32:07;;;;;;;3.63;1.00;;;11.60;99.90;;;;;;5092305;28;20047;-79
2023/08/31 01:34:33;;;;;;;4.68;0.90;;;11.60;99.90;;;;;;5075722;28;20433;-78
2023/08/31 01:37:07;;;;;;;6.55;1.20;;;11.60;99.90;;;;;;5075295;28;20177;-79
2023/08/31 01:39:41;;;;;;;4.47;0.82;;;11.70;99.90;;;;;;5092678;28;20059;-79
2023/08/31 01:42:08;;;;;;;3.33;0.90;;;11.70;99.90;;;;;;5092408;28;20062;-79
2023/08/31 01:44:36;;;;;;;4.07;1.00;;;11.70;99.90;;;;;;5075320;28;20052;-78
2023/08/31 01:47:07;;;;;;;3.70;1.05;;;11.70;99.90;;;;;;5092337;28;20422;-78
2023/08/31 01:49:37;;;;;;;3.15;1.20;;;11.70;99.90;;;;;;5075458;28;20498;-78
2023/08/31 01:52:03;;;;;;;4.53;1.30;;;11.80;99.90;;;;;;5093526;28;20043;-79
2023/08/31 01:54:28;;;;;;;4.80;0.80;;;11.80;99.90;;;;;;5096331;28;20108;-79
2023/08/31 01:56:54;;;;;;;4.53;1.00;;;11.80;99.90;;;;;;5079307;28;20443;-79
2023/08/31 01:59:20;;;;;;;3.67;1.20;;;11.80;99.90;;;;;;5096107;28;20437;-79
2023/08/31 02:01:45;;;;;;;4.90;0.82;;;11.80;99.90;;;;;;5096127;28;20118;-79
2023/08/31 02:04:11;;;;;;;6.65;1.10;;;11.80;99.90;;;;;;5095758;28;20056;-79
2023/08/31 02:06:36;;;;;;;6.40;1.08;;;11.80;99.90;;;;;;5096039;28;20036;-79
2023/08/31 02:09:02;;;;;;;4.35;1.38;;;11.80;99.90;;;;;;5095961;28;20426;-79
2023/08/31 02:11:28;;;;;;;4.05;1.40;;;11.80;99.90;;;;;;5095992;28;20087;-79
2023/08/31 02:13:53;;;;;;;3.13;0.95;;;11.80;99.90;;;;;;5095357;28;20052;-79
2023/08/31 02:16:19;;;;;;;3.65;1.17;;;11.80;99.90;;;;;;5095796;28;20080;-79
2023/08/31 02:18:44;;;;;;;3.53;1.00;;;11.80;99.90;;;;;;5078937;28;20451;-78
2023/08/31 02:21:10;;;;;;;5.32;1.08;;;11.80;99.90;;;;;;5095795;28;20452;-78
2023/08/31 02:23:36;;;;;;;4.75;1.17;;;11.90;99.90;;;;;;5078617;28;20494;-78
2023/08/31 02:26:01;;;;;;;4.38;1.23;;;11.90;99.90;;;;;;5095532;28;20048;-78
2023/08/31 02:28:27;;;;;;;3.97;1.20;;;11.90;99.90;;;;;;5095467;28;20048;-78
2023/08/31 02:31:00;;;;;;;6.93;0.95;;;11.90;99.90;;;;;;5095404;28;20123;-78
2023/08/31 02:33:26;;;;;;;4.93;1.20;;;11.90;99.90;;;;;;5095154;28;20492;-78
2023/08/31 02:35:53;;;;;;;5.20;1.10;;;11.90;99.90;;;;;;5095301;28;20079;-78
2023/08/31 02:38:18;;;;;;;3.25;1.08;;;11.90;99.90;;;;;;5095121;28;20127;-78
2023/08/31 02:40:47;;;;;;;3.65;1.10;;;11.90;99.90;;;;;;5095428;28;20135;-78
2023/08/31 02:43:13;;;;;;;4.20;1.23;;;11.90;99.90;;;;;;5096430;28;20049;-78
2023/08/31 02:45:39;;;;;;;2.63;0.80;;;11.90;99.90;;;;;;5094930;28;20087;-78
2023/08/31 02:48:10;;;;;;;3.58;1.10;;;11.90;99.90;;;;;;5094999;28;20484;-78
2023/08/31 02:50:36;;;;;;;2.47;0.90;;;11.90;99.90;;;;;;5095295;28;20542;-78
2023/08/31 02:53:02;;;;;;;5.15;1.10;;;11.90;99.90;;;;;;5096177;28;20071;-78
2023/08/31 02:55:28;;;;;;;3.15;0.80;;;11.90;99.90;;;;;;5096201;28;20394;-78
2023/08/31 02:57:54;;;;;;;2.33;0.70;;;11.90;99.90;;;;;;5078330;28;20040;-79
2023/08/31 03:00:21;;;;;;;4.72;1.05;;;11.90;99.90;;;;;;5094920;28;20126;-79
2023/08/31 03:02:47;;;;;;;3.85;1.00;;;11.90;99.90;;;;;;5095871;28;20048;-79
2023/08/31 03:05:13;;;;;;;5.47;0.95;;;11.90;99.90;;;;;;5094913;28;20047;-79
2023/08/31 03:07:39;;;;;;;3.85;1.00;;;11.90;99.90;;;;;;5078106;28;20467;-79
2023/08/31 03:10:05;;;;;;;3.20;1.10;;;11.90;99.90;;;;;;5096045;28;20044;-79
2023/08/31 03:12:31;;;;;;;4.47;1.00;;;11.80;99.90;;;;;;5095594;28;20043;-79
2023/08/31 03:14:56;;;;;;;3.25;1.17;;;11.80;99.90;;;;;;5094716;28;20055;-79
2023/08/31 03:17:22;;;;;;;3.88;1.48;;;11.70;99.90;;;;;;5094448;28;20044;-79
2023/08/31 03:19:48;;;;;;;3.85;1.00;;;11.70;99.90;;;;;;5094427;28;20048;-78
2023/08/31 03:22:17;;;;;;;6.95;1.10;;;11.70;99.90;;;;;;5094359;28;20128;-78
2023/08/31 03:24:43;;;;;;;2.90;1.20;;;11.70;99.90;;;;;;5094305;28;20055;-78
2023/08/31 03:27:08;;;;;;;2.50;1.08;;;11.70;99.90;;;;;;5094605;28;20040;-78
2023/08/31 03:29:34;;;;;;;3.78;1.25;;;11.70;99.90;;;;;;5094725;28;20051;-78
2023/08/31 03:32:01;;;;;;;2.78;1.10;;;11.60;99.90;;;;;;5094356;28;20133;-78
2023/08/31 03:34:31;;;;;;;5.30;1.10;;;11.60;99.90;;;;;;5077283;28;20032;-78
2023/08/31 03:36:57;;;;;;;5.55;1.30;;;11.50;99.90;;;;;;5095155;28;20530;-78
2023/08/31 03:39:24;;;;;;;3.78;1.27;;;11.50;99.90;;;;;;5095477;28;20040;-78
2023/08/31 03:41:49;;;;;;;4.00;1.38;;;11.40;99.90;;;;;;5095340;28;20048;-78
2023/08/31 03:44:15;;;;;;;2.92;1.05;;;11.40;99.90;;;;;;5093864;28;20386;-78
2023/08/31 03:46:41;;;;;;;3.45;1.05;;;11.30;99.90;;;;;;5077056;28;20462;-78
2023/08/31 03:49:06;;;;;;;3.90;1.30;;;11.30;99.90;;;;;;5093633;28;20042;-78
2023/08/31 03:51:32;;;;;;;4.50;1.20;;;11.30;99.90;;;;;;5076963;28;20036;-78
2023/08/31 03:53:57;;;;;;;3.80;1.40;;;11.30;99.90;;;;;;5094245;28;20044;-79
2023/08/31 03:56:23;;;;;;;5.50;1.27;;;11.20;99.90;;;;;;5095031;28;20364;-78
2023/08/31 03:58:49;;;;;;;4.10;1.40;;;11.20;99.90;;;;;;5094930;28;20051;-79
2023/08/31 04:01:15;;;;;;;3.03;1.30;;;11.20;99.90;;;;;;5093611;28;20044;-79
2023/08/31 04:03:42;;;;;;;5.97;1.48;;;11.20;99.90;;;;;;5093672;28;20063;-78
2023/08/31 04:06:08;;;;;;;3.58;1.60;;;11.20;99.90;;;;;;5093751;28;20054;-78
2023/08/31 04:08:34;;;;;;;4.95;1.67;;;11.20;99.90;;;;;;5093541;28;20040;-78
2023/08/31 04:11:00;;;;;;;6.07;1.40;;;11.20;99.90;;;;;;5093666;28;20036;-78
2023/08/31 04:13:25;;;;;;;5.93;1.67;;;11.10;99.90;;;;;;5066531;28;20409;-79
2023/08/31 04:15:52;;;;;;;3.47;1.40;;;11.10;99.90;;;;;;5056258;28;20476;-78
2023/08/31 04:18:21;;;;;;;3.63;1.50;;;11.10;99.90;;;;;;5074304;28;20053;-78
2023/08/31 04:20:52;;;;;;;2.38;1.20;;;11.00;99.90;;;;;;5056667;28;20129;-79
2023/08/31 04:23:21;;;;;;;2.92;1.10;;;11.00;99.90;;;;;;5056463;28;20048;-79
2023/08/31 04:25:47;;;;;;;4.90;1.50;;;11.00;99.90;;;;;;5056120;28;20044;-79
2023/08/31 04:28:13;;;;;;;3.75;1.33;;;11.00;99.90;;;;;;5074230;28;20063;-78
2023/08/31 04:30:40;;;;;;;4.90;1.40;;;10.90;99.90;;;;;;5056043;28;20395;-78
2023/08/31 04:33:07;;;;;;;4.10;1.25;;;10.90;99.90;;;;;;5056051;28;20059;-78
2023/08/31 04:35:33;;;;;;;3.58;1.30;;;10.90;99.90;;;;;;5056311;28;20505;-78
2023/08/31 04:37:58;;;;;;;4.97;1.40;;;10.90;99.90;;;;;;5056115;28;20102;-78
2023/08/31 04:40:24;;;;;;;3.25;1.40;;;10.90;99.90;;;;;;5073700;28;20041;-78
2023/08/31 04:42:51;;;;;;;4.05;1.42;;;10.90;99.90;;;;;;5073028;28;20047;-78
2023/08/31 04:45:16;;;;;;;4.97;1.30;;;10.80;99.90;;;;;;5073952;28;20097;-78
2023/08/31 04:47:42;;;;;;;5.07;1.55;;;10.80;99.90;;;;;;5056047;28;20044;-78
2023/08/31 04:50:08;;;;;;;4.43;1.45;;;10.80;99.90;;;;;;5055709;28;20049;-78
2023/08/31 04:52:34;;;;;;;5.97;1.67;;;10.80;99.90;;;;;;5055655;28;20041;-78
2023/08/31 04:55:07;;;;;;;6.57;1.65;;;10.80;99.90;;;;;;5055686;28;20052;-78
2023/08/31 04:57:33;;;;;;;3.17;1.48;;;10.80;99.90;;;;;;5055859;28;20479;-78
2023/08/31 04:59:59;;;;;;;3.72;1.65;;;10.90;99.90;;;;;;5055556;28;20104;-79
2023/08/31 05:02:24;;;;;;;5.25;1.50;;;10.90;99.90;;;;;;5055947;28;20040;-79
2023/08/31 05:04:51;;;;;;;3.78;1.50;;;10.90;99.90;;;;;;5073648;28;20369;-79
2023/08/31 05:07:16;;;;;;;5.35;1.80;;;10.80;99.90;;;;;;5055409;28;20097;-78
2023/08/31 05:09:42;;;;;;;5.07;1.70;;;10.80;99.90;;;;;;5055508;28;20044;-78
2023/08/31 05:12:08;;;;;;;4.65;1.80;;;10.90;99.90;;;;;;5073526;28;20182;-78
2023/08/31 05:14:37;;;;;;;4.85;1.70;;;10.90;99.90;;;;;;5055248;28;20067;-78
2023/08/31 05:17:06;;;;;;;6.32;2.88;;;10.90;99.90;;;;;;5055663;28;20076;-79
2023/08/31 05:19:32;;;;;;;5.25;2.05;;;11.00;99.90;;;;;;5055563;28;20178;-78
2023/08/31 05:21:57;;;;;;;5.78;1.90;;;11.00;99.90;;;;;;5055352;28;20135;-78
2023/08/31 05:24:23;;;;;;;5.05;2.10;;;11.10;99.90;;;;;;5055221;28;20036;-78
2023/08/31 05:26:49;;;;;;;4.03;1.77;;;11.10;99.90;;;;;;5056285;28;20041;-79
2023/08/31 05:29:15;;;;;;;7.85;3.10;;;11.10;99.90;;;;;;5077428;28;20369;-78
2023/08/31 05:31:41;;;;;;;5.32;1.90;;;11.20;99.90;;;;;;5059424;28;20101;-78
2023/08/31 05:34:09;;;;;;;4.93;1.95;;;11.20;99.90;;;;;;5077253;28;20044;-78
2023/08/31 05:36:34;;;;;;;5.68;2.25;;;11.20;99.90;;;;;;5077200;28;20053;-78
2023/08/31 05:39:00;;;;;;;3.85;2.00;;;11.20;99.90;;;;;;5077431;28;20040;-78
2023/08/31 05:41:26;;;;;;;4.78;2.90;;;11.30;99.90;;;;;;5077193;28;20404;-78
2023/08/31 05:43:52;;;;;;;4.82;1.98;;;11.40;99.90;;;;;;5059230;28;20125;-79
2023/08/31 05:46:18;;;;;;;6.13;2.70;;;11.40;99.90;;;;;;5059182;28;20138;-79
2023/08/31 05:48:43;;;;;;;7.60;1.92;;;11.50;99.90;;;;;;5059337;28;20040;-79
2023/08/31 05:51:09;;;;;;;5.25;2.10;;;11.60;99.90;;;;;;5059280;28;20036;-78
2023/08/31 05:53:35;;;;;;;5.90;2.05;;;11.70;99.90;;;;;;5077171;28;20479;-79
2023/08/31 05:56:07;;;;;;;8.07;2.30;;;11.80;99.90;;;;;;5059022;28;20110;-79
2023/08/31 05:58:36;;;;;;;8.05;2.47;;;11.90;99.90;;;;;;5077175;28;20043;-79
2023/08/31 06:01:04;;;;;;;5.70;1.90;;;12.10;99.90;;;;;;5059045;28;20495;-79
2023/08/31 06:03:30;;;;;;;5.75;2.80;;;12.10;99.90;;;;;;5059068;28;20067;-79
2023/08/31 06:05:57;;;;;;;6.65;2.40;;;12.10;99.90;;;;;;5076929;28;20036;-79
2023/08/31 06:08:22;;;;;;;6.88;2.53;;;12.20;99.90;;;;;;5059057;28;20072;-77
2023/08/31 06:10:48;;;;;;;5.90;2.35;;;12.30;99.90;;;;;;5076688;28;20454;-80
2023/08/31 06:13:14;;;;;;;6.25;2.28;;;12.40;99.90;;;;;;5076368;28;20052;-80
2023/08/31 06:15:40;;;;;;;6.40;2.25;;;12.60;99.90;;;;;;5057446;28;20084;-76
2023/08/31 06:18:06;;;;;;;6.57;2.40;;;12.80;99.90;;;;;;5058536;28;20048;-76
2023/08/31 06:20:32;;;;;;;5.35;2.00;;;12.90;99.90;;;;;;5058596;28;20130;-76
2023/08/31 06:22:58;;;;;;;11.68;3.25;;;13.10;99.90;;;;;;5058246;28;20206;-76
2023/08/31 06:25:24;;;;;;;7.43;2.47;;;13.20;99.90;;;;;;5058225;28;20060;-76
2023/08/31 06:27:50;;;;;;;6.93;1.73;;;13.30;99.90;;;;;;5058395;28;20040;-77
2023/08/31 06:30:17;;;;;;;4.30;1.83;;;13.40;99.90;;;;;;5058741;28;20468;-77
2023/08/31 06:32:47;;;;;;;6.68;1.85;;;13.50;99.90;;;;;;5058098;28;20045;-79
2023/08/31 06:35:15;;;;;;;4.72;1.75;;;13.70;99.90;;;;;;5051755;28;20048;-78
2023/08/31 06:37:41;;;;;;;6.80;2.03;;;13.80;99.90;;;;;;5043138;28;20110;-78
2023/08/31 06:40:08;;;;;;;7.15;1.90;;;14.00;99.90;;;;;;5051184;28;20052;-79
2023/08/31 06:42:37;;;;;;;6.22;1.60;;;14.00;99.90;;;;;;5047058;28;20075;-78
2023/08/31 06:45:07;;;;;;;5.40;1.50;;;14.20;99.90;;;;;;5048318;28;20041;-78
2023/08/31 06:47:34;;;;;;;10.05;1.55;;;14.40;99.90;;;;;;5046796;28;20439;-77
2023/08/31 06:50:00;;;;;;;6.30;2.15;;;14.50;99.90;;;;;;5047313;28;20052;-78
2023/08/31 06:52:26;;;;;;;5.53;1.80;;;14.50;99.90;;;;;;5041922;28;20037;-78
2023/08/31 06:54:56;;;;;;;5.45;1.92;;;14.70;99.90;;;;;;5046265;28;20052;-78
2023/08/31 06:57:23;;;;;;;7.93;1.80;;;14.80;99.90;;;;;;5074287;28;20044;-78
2023/08/31 06:59:48;;;;;;;8.88;1.80;;;14.90;99.90;;;;;;5068011;28;20048;-78
2023/08/31 07:02:15;;;;;;;3.60;1.80;;;15.00;99.90;;;;;;5046432;28;20048;-78
2023/08/31 07:04:43;;;;;;;7.28;1.98;;;15.20;99.90;;;;;;5043157;28;20052;-77
2023/08/31 07:07:09;;;;;;;4.53;2.00;;;15.20;99.90;;;;;;5048874;28;20049;-77
2023/08/31 07:09:35;;;;;;;5.35;1.90;;;15.30;99.90;;;;;;5046917;28;20097;-78
2023/08/31 07:12:04;;;;;;;4.38;1.48;;;15.40;99.90;;;;;;5063260;28;20093;-78
2023/08/31 07:14:29;;;;;;;4.95;1.63;;;15.40;99.90;;;;;;5043960;28;20045;-78
2023/08/31 07:16:56;;;;;;;4.50;1.77;;;15.40;99.90;;;;;;5064628;28;20041;-78
2023/08/31 07:19:21;;;;;;;8.00;1.48;;;15.50;99.90;;;;;;5048382;28;20041;-78
2023/08/31 07:21:47;;;;;;;4.95;1.88;;;15.50;99.90;;;;;;5058008;28;20388;-76
2023/08/31 07:24:13;;;;;;;4.90;1.30;;;15.40;99.90;;;;;;5036976;28;20415;-76
2023/08/31 07:26:39;;;;;;;5.53;1.50;;;15.30;99.90;;;;;;5046764;23;20045;-76
2023/08/31 07:29:05;;;;;;;9.48;2.00;;;15.20;99.90;;;;;;5037038;28;20048;-76
2023/08/31 07:31:31;;;;;;;3.70;1.23;;;15.20;99.90;;;;;;5054920;28;20059;-76
2023/08/31 07:33:59;;;;;;;5.65;1.70;;;15.10;99.90;;;;;;5036973;28;20087;-76
2023/08/31 07:36:25;;;;;;;3.63;1.00;;;15.10;99.90;;;;;;5037013;28;20136;-76
2023/08/31 07:38:50;;;;;;;8.57;1.20;;;15.10;99.90;;;;;;5036910;28;20132;-76
2023/08/31 07:41:16;;;;;;;7.13;1.35;;;15.00;99.90;;;;;;5037072;28;20091;-77
2023/08/31 07:43:42;;;;;;;6.00;1.77;;;15.00;99.90;;;;;;5036608;28;20114;-76
2023/08/31 07:46:07;;;;;;;5.88;1.67;;;14.90;99.90;;;;;;5037055;28;20037;-76
2023/08/31 07:48:33;;;;;;;4.85;1.40;;;14.80;99.90;;;;;;5054520;28;20041;-76
2023/08/31 07:50:58;;;;;;;6.68;2.45;;;14.80;99.90;;;;;;5053804;28;20091;-75
2023/08/31 07:53:24;;;;;;;8.90;2.50;;;14.80;99.90;;;;;;5054668;28;20142;-76
2023/08/31 07:55:54;;;;;;;5.75;1.40;;;14.80;99.90;;;;;;5036647;28;20040;-75
2023/08/31 07:58:23;;;;;;;6.18;1.40;;;14.80;99.90;;;;;;5036584;28;20049;-75
2023/08/31 08:00:52;;;;;;;5.80;1.40;;;15.00;99.90;;;;;;5036453;28;20048;-75
2023/08/31 08:03:17;;;;;;;3.90;1.30;;;15.10;99.90;;;;;;5036550;28;20120;-76
2023/08/31 08:05:43;;;;;;;7.57;1.27;;;15.30;99.90;;;;;;5036414;28;20132;-75
2023/08/31 08:08:09;;;;;;;3.20;1.90;;;15.40;99.90;;;;;;5054528;28;20037;-75
2023/08/31 08:10:35;;;;;;;3.63;0.93;;;15.30;99.90;;;;;;5053647;28;20059;-75
2023/08/31 08:13:00;;;;;;;5.68;1.10;;;15.30;99.90;;;;;;5036546;28;20123;-76
2023/08/31 08:15:26;;;;;;;3.28;1.00;;;15.40;99.90;;;;;;5036441;28;20075;-79
2023/08/31 08:17:53;;;;;;;2.90;1.13;;;15.60;99.90;;;;;;5035500;28;20084;-77
2023/08/31 08:20:19;;;;;;;4.03;1.23;;;15.70;99.90;;;;;;5035133;28;20447;-77
2023/08/31 08:22:45;;;;;;;4.60;1.23;;;15.80;99.90;;;;;;5035349;28;20556;-78
2023/08/31 08:25:11;;;;;;;4.57;1.20;;;15.90;99.90;;;;;;5052143;28;20055;-78
2023/08/31 08:27:36;;;;;;;6.68;1.30;;;16.00;99.90;;;;;;5035407;28;20596;-78
2023/08/31 08:30:04;;;;;;;4.90;1.40;;;16.10;99.90;;;;;;5053694;28;20057;-77
2023/08/31 08:32:30;;;;;;;7.55;1.83;;;16.10;99.90;;;;;;5035885;28;20056;-78
2023/08/31 08:34:55;;;;;;;8.20;1.73;;;16.00;99.90;;;;;;5035545;28;20131;-76
2023/08/31 08:37:25;;;;;;;9.38;1.70;;;16.10;99.90;;;;;;5033764;28;20056;-77
2023/08/31 08:39:51;;;;;;;7.63;2.47;;;16.20;99.90;;;;;;5053119;28;20447;-78
2023/08/31 08:42:19;;;;;;;5.38;1.40;;;16.30;99.90;;;;;;5052804;28;20029;-77
2023/08/31 08:44:44;;;;;;;6.35;1.80;;;16.50;99.90;;;;;;5035010;28;20049;-77
2023/08/31 08:47:12;;;;;;;5.10;1.27;;;16.60;99.90;;;;;;5035370;28;20045;-77
2023/08/31 08:49:38;;;;;;;5.72;1.27;;;16.60;99.90;;;;;;5035672;28;20049;-77
2023/08/31 08:52:04;;;;;;;5.53;2.28;;;16.60;99.90;;;;;;5035494;28;20049;-78
2023/08/31 08:54:34;;;;;;;7.85;2.05;;;16.50;99.90;;;;;;5035486;28;20051;-77
2023/08/31 08:57:00;;;;;;;11.00;3.00;;;16.60;99.90;;;;;;5035049;28;20084;-77
2023/08/31 08:59:27;;;;;;;5.57;1.55;;;16.40;99.90;;;;;;5035511;28;20051;-77
2023/08/31 09:01:53;;;;;;;6.93;1.67;;;16.30;99.90;;;;;;5034637;28;20048;-77
2023/08/31 09:04:19;;;;;;;11.55;2.20;;;16.10;99.90;;;;;;5035011;28;20045;-77
2023/08/31 09:06:45;;;;;;;6.50;1.60;;;16.10;99.90;;;;;;5052598;28;20408;-77
2023/08/31 09:09:11;;;;;;;6.25;1.10;;;16.20;99.90;;;;;;5034696;28;20522;-77
2023/08/31 09:11:37;;;;;;;8.52;1.55;;;16.20;99.90;;;;;;5052467;28;20133;-77
2023/08/31 09:14:16;;;;;;;8.10;1.83;;;16.30;99.90;;;;;;5053238;28;20056;-77
2023/08/31 09:16:46;;;;;;;9.00;1.75;;;16.40;99.90;;;;;;5034614;28;20041;-76
2023/08/31 09:19:25;;;;;;;7.55;1.42;;;16.40;99.90;;;;;;5034971;28;20722;-77
2023/08/31 09:21:52;;;;;;;6.93;1.60;;;16.50;99.90;;;;;;5026712;28;20411;-77
2023/08/31 09:24:18;;;;;;;7.47;2.20;;;16.70;99.90;;;;;;5035903;28;20084;-77
2023/08/31 09:26:49;;;;;;;6.90;1.48;;;16.80;99.90;;;;;;5034353;28;20049;-74
2023/08/31 09:29:16;;;;;;;8.88;2.25;;;16.80;99.90;;;;;;5035343;28;20087;-76
2023/08/31 09:31:47;;;;;;;9.05;2.03;;;16.90;99.90;;;;;;5051924;28;20167;-76
2023/08/31 09:34:19;;;;;;;9.18;1.98;;;17.00;99.90;;;;;;5034243;28;20056;-75
2023/08/31 09:36:45;;;;;;;12.27;2.35;;;17.00;99.90;;;;;;5016463;28;20516;-76
2023/08/31 09:39:12;;;;;;;13.02;2.47;;;16.60;99.90;;;;;;5034051;28;20041;-76
2023/08/31 09:41:54;;;;;;;9.68;1.50;;;16.50;99.90;;;;;;5033035;28;20056;-76
2023/08/31 09:44:21;;;;;;;6.60;1.70;;;16.30;99.90;;;;;;5033422;28;20045;-78
2023/08/31 09:46:47;;;;;;;6.35;1.48;;;16.20;99.90;;;;;;5034011;28;20040;-77
2023/08/31 09:49:14;;;;;;;3.72;1.17;;;16.30;99.90;;;;;;5034364;28;20132;-78
2023/08/31 09:51:45;;;;;;;7.90;2.10;;;16.30;99.90;;;;;;5034460;28;20045;-77
2023/08/31 09:54:15;;;;;;;6.35;1.45;;;16.40;99.90;;;;;;5034274;28;20552;-80
2023/08/31 09:56:43;;;;;;;6.97;1.30;;;16.50;99.90;;;;;;5034748;28;20056;-76
2023/08/31 09:59:10;;;;;;;4.45;1.25;;;16.60;99.90;;;;;;5035083;28;20130;-76
2023/08/31 10:01:36;;;;;;;7.28;1.40;;;16.60;99.90;;;;;;5034811;28;20037;-76
2023/08/31 10:04:02;;;;;;;4.75;1.50;;;16.70;99.90;;;;;;5034767;28;20052;-76
2023/08/31 10:06:29;;;;;;;7.05;1.38;;;16.80;99.90;;;;;;5035117;28;20040;-76
2023/08/31 10:08:55;;;;;;;4.03;1.25;;;16.90;99.90;;;;;;5034647;28;20049;-76
2023/08/31 10:11:22;;;;;;;5.57;1.45;;;17.00;99.90;;;;;;5034753;28;20048;-77
2023/08/31 10:13:49;;;;;;;9.20;1.80;;;17.00;99.90;;;;;;5037013;28;20046;-77
2023/08/31 10:16:20;;;;;;;7.00;1.38;;;17.00;99.90;;;;;;5038713;28;20081;-78
2023/08/31 10:18:46;;;;;;;5.63;1.20;;;17.10;99.90;;;;;;5038385;28;20052;-77
2023/08/31 10:21:15;;;;;;;5.90;1.60;;;17.20;99.90;;;;;;5037879;28;20610;-77
2023/08/31 10:23:45;;;;;;;5.25;1.08;;;17.20;99.90;;;;;;5038081;28;20057;-77
2023/08/31 10:26:27;;;;;;;3.83;1.33;;;17.10;99.90;;;;;;5018601;28;20041;-77
2023/08/31 10:28:56;;;;;;;8.68;1.13;;;17.30;99.90;;;;;;5027072;28;20136;-80
2023/08/31 10:31:22;;;;;;;6.95;1.30;;;17.40;99.90;;;;;;5037888;28;20053;-79
2023/08/31 10:34:09;;;;;;;3.90;1.27;;;17.30;99.90;;;;;;5056356;28;20076;-80
2023/08/31 10:36:44;;;;;;;7.25;1.10;;;17.30;99.90;;;;;;5038400;28;20056;-79
2023/08/31 10:39:19;;;;;;;6.22;1.40;;;17.40;99.90;;;;;;5038143;28;20511;-80
2023/08/31 10:41:56;;;;;;;7.05;1.30;;;17.60;99.90;;;;;;5038046;28;20053;-79
2023/08/31 10:44:23;;;;;;;8.57;1.70;;;17.80;99.90;;;;;;5037903;28;20098;-79
2023/08/31 10:46:50;;;;;;;7.18;1.92;;;17.90;99.90;;;;;;5037979;28;20080;-80
2023/08/31 10:49:17;;;;;;;6.38;1.52;;;18.00;99.90;;;;;;5037127;28;20040;-77
2023/08/31 10:51:44;;;;;;;10.30;1.40;;;17.70;99.90;;;;;;5054597;28;20053;-77
2023/08/31 10:54:20;;;;;;;8.63;2.53;;;17.40;99.90;;;;;;5033214;28;20045;-76
2023/08/31 10:57:07;;;;;;;10.45;1.90;;;17.20;99.90;;;;;;5025215;28;20067;-79
2023/08/31 10:59:48;;;;;;;9.23;1.85;;;17.00;99.90;;;;;;5031414;28;20503;-78
2023/08/31 11:02:37;;;;;;;9.68;2.20;;;16.80;99.90;;;;;;5032661;28;20048;-79
2023/08/31 11:05:07;;;;;;;11.18;2.97;;;16.70;99.90;;;;;;5024838;28;20139;-78
2023/08/31 11:07:43;;;;;;;4.45;1.58;;;16.40;99.90;;;;;;5032905;28;20049;-77
2023/08/31 11:10:13;;;;;;;4.43;1.20;;;16.40;99.90;;;;;;5032682;28;20037;-77
2023/08/31 11:12:40;;;;;;;10.27;1.88;;;16.30;99.90;;;;;;5032255;28;20045;-77
2023/08/31 11:15:07;;;;;;;8.95;1.90;;;16.20;99.90;;;;;;5032540;28;20826;-78
2023/08/31 11:17:33;;;;;;;10.60;2.00;;;16.30;99.90;;;;;;5032836;28;20041;-78
2023/08/31 11:20:00;;;;;;;7.03;1.52;;;16.40;99.90;;;;;;5051076;28;20037;-79
2023/08/31 11:22:27;;;;;;;6.43;1.65;;;16.50;99.90;;;;;;5033327;28;20102;-78
2023/08/31 11:24:53;;;;;;;10.52;1.48;;;16.50;99.90;;;;;;5032093;28;20056;-79
2023/08/31 11:27:21;;;;;;;5.18;1.60;;;16.40;99.90;;;;;;5032989;28;20049;-78
2023/08/31 11:29:47;;;;;;;3.28;0.90;;;16.30;99.90;;;;;;5033061;28;20604;-78
2023/08/31 11:32:14;;;;;;;5.70;1.42;;;16.20;99.90;;;;;;5065535;28;20510;-79
2023/08/31 11:34:45;;;;;;;8.48;1.55;;;16.20;99.90;;;;;;5053125;28;20075;-77
2023/08/31 11:37:17;;;;;;;7.50;1.43;;;16.20;99.90;;;;;;5053032;28;20048;-78
2023/08/31 11:39:52;;;;;;;6.53;1.40;;;16.20;99.90;;;;;;5052597;28;20056;-77
2023/08/31 11:42:19;;;;;;;8.20;2.92;;;16.30;99.90;;;;;;5052000;28;20040;-78
2023/08/31 11:44:51;;;;;;;10.32;2.67;;;16.60;99.90;;;;;;5056016;28;20048;-77
2023/08/31 11:47:20;;;;;;;8.82;1.83;;;16.90;99.90;;;;;;5055746;28;20083;-76
2023/08/31 11:49:49;;;;;;;12.90;2.20;;;17.10;99.90;;;;;;5054231;28;20044;-83
2023/08/31 11:52:15;;;;;;;12.23;2.22;;;17.40;99.90;;;;;;5056065;28;20842;-78
2023/08/31 11:54:42;;;;;;;6.07;1.50;;;17.50;99.90;;;;;;5072914;28;20156;-79
2023/08/31 11:57:09;;;;;;;10.43;1.70;;;17.70;99.90;;;;;;5058992;28;20071;-78
2023/08/31 11:59:36;;;;;;;6.82;1.75;;;17.80;99.90;;;;;;5083096;28;20060;-79
2023/08/31 12:02:06;;;;;;;6.45;1.60;;;17.90;99.90;;;;;;5059414;28;20043;-79
2023/08/31 12:04:32;;;;;;;7.53;1.60;;;18.00;99.90;;;;;;5072596;28;20060;-79
2023/08/31 12:07:06;;;;;;;6.32;1.80;;;18.20;99.90;;;;;;5055902;28;20049;-77
2023/08/31 12:09:32;;;;;;;8.55;2.75;;;18.20;99.90;;;;;;5055559;28;20136;-80
2023/08/31 12:12:00;;;;;;;5.97;1.33;;;18.30;99.90;;;;;;5058590;28;20140;-82
2023/08/31 12:14:27;;;;;;;7.22;1.50;;;18.30;99.90;;;;;;5080727;28;20048;-79
2023/08/31 12:17:03;;;;;;;5.95;1.40;;;18.30;99.90;;;;;;5057367;28;20131;-79
2023/08/31 12:19:30;;;;;;;3.83;1.40;;;18.40;99.90;;;;;;5074808;28;20127;-78
2023/08/31 12:21:56;;;;;;;6.72;2.15;;;18.40;99.90;;;;;;5055987;28;20044;-79
2023/08/31 12:24:23;;;;;;;5.47;1.40;;;18.50;99.90;;;;;;5055711;28;20092;-80
2023/08/31 12:26:49;;;;;;;8.43;1.70;;;18.50;99.90;;;;;;5073381;28;20058;-78
2023/08/31 12:29:15;;;;;;;7.97;2.03;;;18.50;99.90;;;;;;5073524;28;20423;-79
2023/08/31 12:31:41;;;;;;;7.18;1.35;;;18.60;99.90;;;;;;5073596;28;20514;-78
2023/08/31 12:34:06;;;;;;;8.23;2.17;;;18.70;99.90;;;;;;5055809;28;20048;-80
2023/08/31 12:36:33;;;;;;;8.15;1.42;;;18.70;99.90;;;;;;5055468;28;20526;-81
2023/08/31 12:39:01;;;;;;;8.70;2.47;;;18.50;99.90;;;;;;5055515;28;20040;-77
2023/08/31 12:41:28;;;;;;;8.77;1.50;;;18.50;99.90;;;;;;5073288;28;20055;-78
2023/08/31 12:43:54;;;;;;;4.85;0.98;;;18.60;99.90;;;;;;5055557;28;20044;-77
2023/08/31 12:46:19;;;;;;;10.27;1.38;;;18.80;99.90;;;;;;5055219;28;20040;-76
2023/08/31 12:48:45;;;;;;;7.93;1.60;;;18.90;99.90;;;;;;5054917;28;20060;-79